sensor_id;sensor_type;location;lat;lon;timestamp;temperature;humidity
10095;DHT22;5086;50.830;7.102;2023-05-19T00:00:07;10.00;99.90
10095;DHT22;5086;50.830;7.102;2023-05-19T00:02:34;9.90;99.90
10095;DHT22;5086;50.830;7.102;2023-05-19T00:05:04;9.90;99.90
10095;DHT22;5086;50.830;7.102;2023-05-19T00:07:32;9.80;99.90
10095;DHT22;5086;50.830;7.102;2023-05-19T00:10:02;9.70;99.90
10095;DHT22;5086;50.830;7.102;2023-05-19T00:12:29;9.60;99.90
10095;DHT22;5086;50.830;7.102;2023-05-19T00:15:01;9.60;99.90
10095;DHT22;5086;50.830;7.102;2023-05-19T00:17:28;9.70;99.90
10095;DHT22;5086;50.830;7.102;2023-05-19T00:19:55;9.60;99.90
10095;DHT22;5086;50.830;7.102;2023-05-19T00:22:22;9.50;99.90
10095;DHT22;5086;50.830;7.102;2023-05-19T00:24:50;9.40;99.90
10095;DHT22;5086;50.830;7.102;2023-05-19T00:27:18;9.40;99.90
10095;DHT22;5086;50.830;7.102;2023-05-19T00:29:45;9.40;99.90
10095;DHT22;5086;50.830;7.102;2023-05-19T00:32:13;9.40;99.90
10095;DHT22;5086;50.830;7.102;2023-05-19T00:34:43;9.40;99.90
10095;DHT22;5086;50.830;7.102;2023-05-19T00:37:12;9.30;99.90
10095;DHT22;5086;50.830;7.102;2023-05-19T00:39:39;9.30;99.90
10095;DHT22;5086;50.830;7.102;2023-05-19T00:42:06;9.20;99.90
10095;DHT22;5086;50.830;7.102;2023-05-19T00:44:39;9.30;99.90
10095;DHT22;5086;50.830;7.102;2023-05-19T00:47:07;9.20;99.90
10095;DHT22;5086;50.830;7.102;2023-05-19T00:49:36;9.20;99.90
10095;DHT22;5086;50.830;7.102;2023-05-19T00:52:05;9.20;99.90
10095;DHT22;5086;50.830;7.102;2023-05-19T00:54:33;9.10;99.90
10095;DHT22;5086;50.830;7.102;2023-05-19T00:57:00;9.10;99.90
10095;DHT22;5086;50.830;7.102;2023-05-19T00:59:29;9.10;99.90
10095;DHT22;5086;50.830;7.102;2023-05-19T01:01:56;8.90;99.90
10095;DHT22;5086;50.830;7.102;2023-05-19T01:04:24;8.90;99.90
10095;DHT22;5086;50.830;7.102;2023-05-19T01:06:52;8.90;99.90
10095;DHT22;5086;50.830;7.102;2023-05-19T01:09:20;8.80;99.90
10095;DHT22;5086;50.830;7.102;2023-05-19T01:11:47;8.80;99.90
10095;DHT22;5086;50.830;7.102;2023-05-19T01:14:14;8.80;99.90
10095;DHT22;5086;50.830;7.102;2023-05-19T01:16:44;8.80;99.90
10095;DHT22;5086;50.830;7.102;2023-05-19T01:19:30;8.70;99.90
10095;DHT22;5086;50.830;7.102;2023-05-19T01:22:13;8.70;99.90
10095;DHT22;5086;50.830;7.102;2023-05-19T01:25:15;8.60;99.90
10095;DHT22;5086;50.830;7.102;2023-05-19T01:30:55;8.60;99.90
10095;DHT22;5086;50.830;7.102;2023-05-19T01:33:23;8.60;99.90
10095;DHT22;5086;50.830;7.102;2023-05-19T01:35:52;8.60;99.90
10095;DHT22;5086;50.830;7.102;2023-05-19T01:38:21;8.50;99.90
10095;DHT22;5086;50.830;7.102;2023-05-19T01:41:02;8.50;99.90
10095;DHT22;5086;50.830;7.102;2023-05-19T01:43:30;8.60;99.90
10095;DHT22;5086;50.830;7.102;2023-05-19T01:46:00;8.50;99.90
10095;DHT22;5086;50.830;7.102;2023-05-19T01:48:28;8.50;99.90
10095;DHT22;5086;50.830;7.102;2023-05-19T01:50:55;8.60;99.90
10095;DHT22;5086;50.830;7.102;2023-05-19T01:53:23;8.50;99.90
10095;DHT22;5086;50.830;7.102;2023-05-19T01:55:52;8.50;99.90
10095;DHT22;5086;50.830;7.102;2023-05-19T01:58:25;8.50;99.90
10095;DHT22;5086;50.830;7.102;2023-05-19T02:00:59;8.30;99.90
10095;DHT22;5086;50.830;7.102;2023-05-19T02:03:47;8.30;99.90
10095;DHT22;5086;50.830;7.102;2023-05-19T02:06:25;8.30;99.90
10095;DHT22;5086;50.830;7.102;2023-05-19T02:09:01;8.20;99.90
10095;DHT22;5086;50.830;7.102;2023-05-19T02:11:35;8.10;99.90
10095;DHT22;5086;50.830;7.102;2023-05-19T02:14:07;8.00;99.90
10095;DHT22;5086;50.830;7.102;2023-05-19T02:16:36;8.00;99.90
10095;DHT22;5086;50.830;7.102;2023-05-19T02:19:06;8.00;99.90
10095;DHT22;5086;50.830;7.102;2023-05-19T02:21:45;8.10;99.90
10095;DHT22;5086;50.830;7.102;2023-05-19T02:24:12;8.00;99.90
10095;DHT22;5086;50.830;7.102;2023-05-19T02:26:39;8.00;99.90
10095;DHT22;5086;50.830;7.102;2023-05-19T02:29:06;7.90;99.90
10095;DHT22;5086;50.830;7.102;2023-05-19T02:31:33;7.90;99.90
10095;DHT22;5086;50.830;7.102;2023-05-19T02:34:00;7.90;99.90
10095;DHT22;5086;50.830;7.102;2023-05-19T02:36:32;7.80;99.90
10095;DHT22;5086;50.830;7.102;2023-05-19T02:39:01;7.80;99.90
10095;DHT22;5086;50.830;7.102;2023-05-19T02:41:28;7.80;99.90
10095;DHT22;5086;50.830;7.102;2023-05-19T02:43:56;7.70;99.90
10095;DHT22;5086;50.830;7.102;2023-05-19T02:46:23;7.70;99.90
10095;DHT22;5086;50.830;7.102;2023-05-19T02:48:51;7.70;99.90
10095;DHT22;5086;50.830;7.102;2023-05-19T02:51:18;7.80;99.90
10095;DHT22;5086;50.830;7.102;2023-05-19T02:53:46;7.70;99.90
10095;DHT22;5086;50.830;7.102;2023-05-19T02:56:14;7.70;99.90
10095;DHT22;5086;50.830;7.102;2023-05-19T02:58:41;7.70;99.90
10095;DHT22;5086;50.830;7.102;2023-05-19T03:01:09;7.70;99.90
10095;DHT22;5086;50.830;7.102;2023-05-19T03:03:35;7.70;99.90
10095;DHT22;5086;50.830;7.102;2023-05-19T03:06:03;7.70;99.90
10095;DHT22;5086;50.830;7.102;2023-05-19T03:08:33;7.60;99.90
10095;DHT22;5086;50.830;7.102;2023-05-19T03:11:01;7.70;99.90
10095;DHT22;5086;50.830;7.102;2023-05-19T03:13:28;7.60;99.90
10095;DHT22;5086;50.830;7.102;2023-05-19T03:15:56;7.50;99.90
10095;DHT22;5086;50.830;7.102;2023-05-19T03:18:24;7.40;99.90
10095;DHT22;5086;50.830;7.102;2023-05-19T03:20:53;7.40;99.90
10095;DHT22;5086;50.830;7.102;2023-05-19T03:23:20;7.40;99.90
10095;DHT22;5086;50.830;7.102;2023-05-19T03:25:47;7.40;99.90
10095;DHT22;5086;50.830;7.102;2023-05-19T03:28:16;7.40;99.90
10095;DHT22;5086;50.830;7.102;2023-05-19T03:30:43;7.40;99.90
10095;DHT22;5086;50.830;7.102;2023-05-19T03:33:13;7.40;99.90
10095;DHT22;5086;50.830;7.102;2023-05-19T03:35:40;7.30;99.90
10095;DHT22;5086;50.830;7.102;2023-05-19T03:38:08;7.40;99.90
10095;DHT22;5086;50.830;7.102;2023-05-19T03:40:35;7.40;99.90
10095;DHT22;5086;50.830;7.102;2023-05-19T03:43:02;7.40;99.90
10095;DHT22;5086;50.830;7.102;2023-05-19T03:45:31;7.30;99.90
10095;DHT22;5086;50.830;7.102;2023-05-19T03:47:58;7.30;99.90
10095;DHT22;5086;50.830;7.102;2023-05-19T03:50:25;7.30;99.90
10095;DHT22;5086;50.830;7.102;2023-05-19T03:52:53;7.30;99.90
10095;DHT22;5086;50.830;7.102;2023-05-19T03:55:20;7.20;99.90
10095;DHT22;5086;50.830;7.102;2023-05-19T03:57:50;7.30;99.90
10095;DHT22;5086;50.830;7.102;2023-05-19T04:00:17;7.20;99.90
10095;DHT22;5086;50.830;7.102;2023-05-19T04:02:46;7.20;99.90
10095;DHT22;5086;50.830;7.102;2023-05-19T04:05:13;7.30;99.90
10095;DHT22;5086;50.830;7.102;2023-05-19T04:07:40;7.20;99.90
10095;DHT22;5086;50.830;7.102;2023-05-19T04:10:08;7.20;99.90
10095;DHT22;5086;50.830;7.102;2023-05-19T04:12:35;7.30;99.90
10095;DHT22;5086;50.830;7.102;2023-05-19T04:15:02;7.40;99.90
10095;DHT22;5086;50.830;7.102;2023-05-19T04:17:30;7.50;99.90
10095;DHT22;5086;50.830;7.102;2023-05-19T04:19:58;7.50;99.90
10095;DHT22;5086;50.830;7.102;2023-05-19T04:22:25;7.60;99.90
10095;DHT22;5086;50.830;7.102;2023-05-19T04:24:52;7.50;99.90
10095;DHT22;5086;50.830;7.102;2023-05-19T04:27:19;7.60;99.90
10095;DHT22;5086;50.830;7.102;2023-05-19T04:29:46;7.60;99.90
10095;DHT22;5086;50.830;7.102;2023-05-19T04:32:14;7.70;99.90
10095;DHT22;5086;50.830;7.102;2023-05-19T04:34:42;7.70;99.90
10095;DHT22;5086;50.830;7.102;2023-05-19T04:37:12;7.70;99.90
10095;DHT22;5086;50.830;7.102;2023-05-19T04:39:40;7.80;99.90
10095;DHT22;5086;50.830;7.102;2023-05-19T04:42:09;7.90;99.90
10095;DHT22;5086;50.830;7.102;2023-05-19T04:44:37;8.00;99.90
10095;DHT22;5086;50.830;7.102;2023-05-19T04:47:06;8.10;99.90
10095;DHT22;5086;50.830;7.102;2023-05-19T04:49:33;8.30;99.90
10095;DHT22;5086;50.830;7.102;2023-05-19T04:52:04;8.40;99.90
10095;DHT22;5086;50.830;7.102;2023-05-19T04:54:34;8.50;99.90
10095;DHT22;5086;50.830;7.102;2023-05-19T04:57:00;8.80;99.90
10095;DHT22;5086;50.830;7.102;2023-05-19T04:59:27;9.00;99.90
10095;DHT22;5086;50.830;7.102;2023-05-19T05:01:55;9.30;99.90
10095;DHT22;5086;50.830;7.102;2023-05-19T05:04:22;9.40;99.90
10095;DHT22;5086;50.830;7.102;2023-05-19T05:06:49;9.40;99.90
10095;DHT22;5086;50.830;7.102;2023-05-19T05:09:17;9.50;99.90
10095;DHT22;5086;50.830;7.102;2023-05-19T05:11:46;9.60;99.90
10095;DHT22;5086;50.830;7.102;2023-05-19T05:14:14;9.80;99.90
10095;DHT22;5086;50.830;7.102;2023-05-19T05:16:42;9.90;99.90
10095;DHT22;5086;50.830;7.102;2023-05-19T05:19:09;10.00;99.90
10095;DHT22;5086;50.830;7.102;2023-05-19T05:21:36;10.30;99.90
10095;DHT22;5086;50.830;7.102;2023-05-19T05:24:04;10.50;99.90
10095;DHT22;5086;50.830;7.102;2023-05-19T05:26:33;10.90;99.90
10095;DHT22;5086;50.830;7.102;2023-05-19T05:29:02;11.10;99.90
10095;DHT22;5086;50.830;7.102;2023-05-19T05:31:29;11.30;99.90
10095;DHT22;5086;50.830;7.102;2023-05-19T05:33:56;11.40;99.90
10095;DHT22;5086;50.830;7.102;2023-05-19T05:36:23;11.70;99.90
10095;DHT22;5086;50.830;7.102;2023-05-19T05:38:50;12.00;99.90
10095;DHT22;5086;50.830;7.102;2023-05-19T05:41:17;12.20;99.90
10095;DHT22;5086;50.830;7.102;2023-05-19T05:43:44;12.30;99.90
10095;DHT22;5086;50.830;7.102;2023-05-19T05:46:12;12.20;99.90
10095;DHT22;5086;50.830;7.102;2023-05-19T05:48:40;12.40;99.90
10095;DHT22;5086;50.830;7.102;2023-05-19T05:51:08;12.70;99.90
10095;DHT22;5086;50.830;7.102;2023-05-19T05:53:39;13.10;99.90
10095;DHT22;5086;50.830;7.102;2023-05-19T05:56:08;13.20;99.90
10095;DHT22;5086;50.830;7.102;2023-05-19T05:58:35;13.50;99.90
10095;DHT22;5086;50.830;7.102;2023-05-19T06:01:05;13.80;99.90
10095;DHT22;5086;50.830;7.102;2023-05-19T06:03:37;14.00;99.90
10095;DHT22;5086;50.830;7.102;2023-05-19T06:06:04;14.10;99.90
10095;DHT22;5086;50.830;7.102;2023-05-19T06:08:32;14.20;99.90
10095;DHT22;5086;50.830;7.102;2023-05-19T06:10:59;14.30;99.90
10095;DHT22;5086;50.830;7.102;2023-05-19T06:13:32;14.70;99.90
10095;DHT22;5086;50.830;7.102;2023-05-19T06:15:59;14.60;99.90
10095;DHT22;5086;50.830;7.102;2023-05-19T06:18:26;14.50;99.90
10095;DHT22;5086;50.830;7.102;2023-05-19T06:20:54;14.80;99.90
10095;DHT22;5086;50.830;7.102;2023-05-19T06:23:21;15.20;99.90
10095;DHT22;5086;50.830;7.102;2023-05-19T06:25:48;15.40;99.90
10095;DHT22;5086;50.830;7.102;2023-05-19T06:28:15;15.40;99.90
10095;DHT22;5086;50.830;7.102;2023-05-19T06:30:41;15.50;99.90
10095;DHT22;5086;50.830;7.102;2023-05-19T06:33:08;16.00;99.90
10095;DHT22;5086;50.830;7.102;2023-05-19T06:35:35;16.10;99.90
10095;DHT22;5086;50.830;7.102;2023-05-19T06:38:04;16.30;99.90
10095;DHT22;5086;50.830;7.102;2023-05-19T06:40:30;16.00;99.90
10095;DHT22;5086;50.830;7.102;2023-05-19T06:42:57;16.30;99.90
10095;DHT22;5086;50.830;7.102;2023-05-19T06:45:24;16.20;99.90
10095;DHT22;5086;50.830;7.102;2023-05-19T06:47:52;16.30;99.90
10095;DHT22;5086;50.830;7.102;2023-05-19T06:50:20;16.40;99.90
10095;DHT22;5086;50.830;7.102;2023-05-19T06:52:47;16.90;99.90
10095;DHT22;5086;50.830;7.102;2023-05-19T06:55:15;17.20;99.90
10095;DHT22;5086;50.830;7.102;2023-05-19T06:57:42;17.20;99.90
10095;DHT22;5086;50.830;7.102;2023-05-19T07:00:10;17.20;99.90
10095;DHT22;5086;50.830;7.102;2023-05-19T07:02:37;16.90;99.90
10095;DHT22;5086;50.830;7.102;2023-05-19T07:05:04;17.60;99.90
10095;DHT22;5086;50.830;7.102;2023-05-19T07:07:32;17.80;99.90
10095;DHT22;5086;50.830;7.102;2023-05-19T07:09:59;17.90;99.90
10095;DHT22;5086;50.830;7.102;2023-05-19T07:12:27;17.90;99.90
10095;DHT22;5086;50.830;7.102;2023-05-19T07:14:54;18.20;99.90
10095;DHT22;5086;50.830;7.102;2023-05-19T07:17:21;18.20;99.90
10095;DHT22;5086;50.830;7.102;2023-05-19T07:19:48;18.60;99.90
10095;DHT22;5086;50.830;7.102;2023-05-19T07:22:15;18.80;99.90
10095;DHT22;5086;50.830;7.102;2023-05-19T07:24:41;19.00;99.90
10095;DHT22;5086;50.830;7.102;2023-05-19T07:27:09;19.30;99.90
10095;DHT22;5086;50.830;7.102;2023-05-19T07:29:46;19.30;99.90
10095;DHT22;5086;50.830;7.102;2023-05-19T07:32:13;19.30;99.90
10095;DHT22;5086;50.830;7.102;2023-05-19T07:34:40;19.20;99.90
10095;DHT22;5086;50.830;7.102;2023-05-19T07:37:07;19.50;99.90
10095;DHT22;5086;50.830;7.102;2023-05-19T07:39:34;19.50;99.90
10095;DHT22;5086;50.830;7.102;2023-05-19T07:42:04;19.10;99.90
10095;DHT22;5086;50.830;7.102;2023-05-19T07:44:31;18.80;99.90
10095;DHT22;5086;50.830;7.102;2023-05-19T07:47:00;19.40;99.90
10095;DHT22;5086;50.830;7.102;2023-05-19T07:49:27;18.70;99.90
10095;DHT22;5086;50.830;7.102;2023-05-19T07:51:54;19.40;99.90
10095;DHT22;5086;50.830;7.102;2023-05-19T07:54:21;19.40;99.90
10095;DHT22;5086;50.830;7.102;2023-05-19T07:56:53;19.50;99.90
10095;DHT22;5086;50.830;7.102;2023-05-19T07:59:20;19.50;99.90
10095;DHT22;5086;50.830;7.102;2023-05-19T08:01:47;19.70;99.90
10095;DHT22;5086;50.830;7.102;2023-05-19T08:04:16;19.80;99.90
10095;DHT22;5086;50.830;7.102;2023-05-19T08:06:42;20.20;99.90
10095;DHT22;5086;50.830;7.102;2023-05-19T08:09:10;20.00;99.90
10095;DHT22;5086;50.830;7.102;2023-05-19T08:11:37;19.70;99.90
10095;DHT22;5086;50.830;7.102;2023-05-19T08:14:07;19.50;99.90
10095;DHT22;5086;50.830;7.102;2023-05-19T08:16:35;19.60;99.90
10095;DHT22;5086;50.830;7.102;2023-05-19T08:19:02;19.40;99.90
10095;DHT22;5086;50.830;7.102;2023-05-19T08:21:32;19.30;99.90
10095;DHT22;5086;50.830;7.102;2023-05-19T08:24:00;18.90;99.90
10095;DHT22;5086;50.830;7.102;2023-05-19T08:26:27;18.70;99.90
10095;DHT22;5086;50.830;7.102;2023-05-19T08:28:54;18.70;99.90
10095;DHT22;5086;50.830;7.102;2023-05-19T08:31:21;18.80;99.90
10095;DHT22;5086;50.830;7.102;2023-05-19T08:33:49;18.80;99.90
10095;DHT22;5086;50.830;7.102;2023-05-19T08:36:16;18.60;99.90
10095;DHT22;5086;50.830;7.102;2023-05-19T08:38:44;18.60;99.90
10095;DHT22;5086;50.830;7.102;2023-05-19T08:41:11;17.90;99.90
10095;DHT22;5086;50.830;7.102;2023-05-19T08:43:38;18.00;99.90
10095;DHT22;5086;50.830;7.102;2023-05-19T08:46:05;18.10;99.90
10095;DHT22;5086;50.830;7.102;2023-05-19T08:48:34;18.40;99.90
10095;DHT22;5086;50.830;7.102;2023-05-19T08:51:12;18.30;99.90
10095;DHT22;5086;50.830;7.102;2023-05-19T08:53:41;18.20;99.90
10095;DHT22;5086;50.830;7.102;2023-05-19T08:56:15;18.60;99.90
10095;DHT22;5086;50.830;7.102;2023-05-19T08:58:43;18.80;99.90
10095;DHT22;5086;50.830;7.102;2023-05-19T09:01:13;18.80;99.90
10095;DHT22;5086;50.830;7.102;2023-05-19T09:03:44;18.80;99.90
10095;DHT22;5086;50.830;7.102;2023-05-19T09:06:15;18.90;99.90
10095;DHT22;5086;50.830;7.102;2023-05-19T09:08:42;19.10;99.90
10095;DHT22;5086;50.830;7.102;2023-05-19T09:11:13;19.30;99.90
10095;DHT22;5086;50.830;7.102;2023-05-19T09:13:40;19.20;99.90
10095;DHT22;5086;50.830;7.102;2023-05-19T09:16:07;18.80;99.90
10095;DHT22;5086;50.830;7.102;2023-05-19T09:18:37;19.30;99.90
10095;DHT22;5086;50.830;7.102;2023-05-19T09:21:05;19.40;99.90
10095;DHT22;5086;50.830;7.102;2023-05-19T09:23:32;19.50;99.90
10095;DHT22;5086;50.830;7.102;2023-05-19T09:26:02;19.20;99.90
10095;DHT22;5086;50.830;7.102;2023-05-19T09:28:35;18.80;99.90
10095;DHT22;5086;50.830;7.102;2023-05-19T09:31:03;19.20;99.90
10095;DHT22;5086;50.830;7.102;2023-05-19T09:33:34;19.30;99.90
10095;DHT22;5086;50.830;7.102;2023-05-19T09:36:02;18.90;99.90
10095;DHT22;5086;50.830;7.102;2023-05-19T09:38:30;18.50;99.90
10095;DHT22;5086;50.830;7.102;2023-05-19T09:40:58;18.50;99.90
10095;DHT22;5086;50.830;7.102;2023-05-19T09:43:29;18.90;99.90
10095;DHT22;5086;50.830;7.102;2023-05-19T09:46:05;19.40;99.90
10095;DHT22;5086;50.830;7.102;2023-05-19T09:48:33;19.50;99.90
10095;DHT22;5086;50.830;7.102;2023-05-19T09:51:07;19.70;99.90
10095;DHT22;5086;50.830;7.102;2023-05-19T09:53:36;19.60;99.90
10095;DHT22;5086;50.830;7.102;2023-05-19T09:56:05;19.00;99.90
10095;DHT22;5086;50.830;7.102;2023-05-19T09:59:19;19.20;99.90
10095;DHT22;5086;50.830;7.102;2023-05-19T10:02:02;19.40;99.90
10095;DHT22;5086;50.830;7.102;2023-05-19T10:04:41;19.40;99.90
10095;DHT22;5086;50.830;7.102;2023-05-19T10:07:09;19.50;99.90
10095;DHT22;5086;50.830;7.102;2023-05-19T10:09:42;19.20;99.90
10095;DHT22;5086;50.830;7.102;2023-05-19T10:12:11;19.40;99.90
10095;DHT22;5086;50.830;7.102;2023-05-19T10:14:39;19.50;99.90
10095;DHT22;5086;50.830;7.102;2023-05-19T10:17:08;19.70;99.90
10095;DHT22;5086;50.830;7.102;2023-05-19T10:19:37;19.50;99.90
10095;DHT22;5086;50.830;7.102;2023-05-19T10:22:05;19.60;99.90
10095;DHT22;5086;50.830;7.102;2023-05-19T10:24:33;19.80;99.90
10095;DHT22;5086;50.830;7.102;2023-05-19T10:27:06;20.00;99.90
10095;DHT22;5086;50.830;7.102;2023-05-19T10:29:42;20.30;99.90
10095;DHT22;5086;50.830;7.102;2023-05-19T10:32:18;20.50;99.90
10095;DHT22;5086;50.830;7.102;2023-05-19T10:38:23;20.70;99.90
10095;DHT22;5086;50.830;7.102;2023-05-19T10:41:05;20.60;99.90
10095;DHT22;5086;50.830;7.102;2023-05-19T10:44:12;20.40;99.90
10095;DHT22;5086;50.830;7.102;2023-05-19T10:46:54;20.30;99.90
10095;DHT22;5086;50.830;7.102;2023-05-19T10:49:36;20.40;99.90
10095;DHT22;5086;50.830;7.102;2023-05-19T10:52:18;20.60;99.90
10095;DHT22;5086;50.830;7.102;2023-05-19T10:54:57;20.60;99.50
10095;DHT22;5086;50.830;7.102;2023-05-19T10:57:52;20.40;99.40
10095;DHT22;5086;50.830;7.102;2023-05-19T11:00:28;20.50;98.20
10095;DHT22;5086;50.830;7.102;2023-05-19T11:03:20;20.50;98.30
10095;DHT22;5086;50.830;7.102;2023-05-19T11:05:52;20.70;99.90
10095;DHT22;5086;50.830;7.102;2023-05-19T11:08:37;20.50;99.90
10095;DHT22;5086;50.830;7.102;2023-05-19T11:11:13;20.20;99.90
10095;DHT22;5086;50.830;7.102;2023-05-19T11:13:45;20.10;99.90
10095;DHT22;5086;50.830;7.102;2023-05-19T11:16:13;19.80;99.90
10095;DHT22;5086;50.830;7.102;2023-05-19T11:18:40;19.70;99.90
10095;DHT22;5086;50.830;7.102;2023-05-19T11:21:09;19.60;99.90
10095;DHT22;5086;50.830;7.102;2023-05-19T11:23:37;19.40;99.90
10095;DHT22;5086;50.830;7.102;2023-05-19T11:26:06;19.60;99.90
10095;DHT22;5086;50.830;7.102;2023-05-19T11:28:36;19.70;99.10
10095;DHT22;5086;50.830;7.102;2023-05-19T11:31:04;19.80;97.60
10095;DHT22;5086;50.830;7.102;2023-05-19T11:33:35;19.80;98.90
10095;DHT22;5086;50.830;7.102;2023-05-19T11:36:02;19.80;99.90
10095;DHT22;5086;50.830;7.102;2023-05-19T11:38:31;19.80;99.90
10095;DHT22;5086;50.830;7.102;2023-05-19T11:40:59;19.60;99.90
10095;DHT22;5086;50.830;7.102;2023-05-19T11:43:26;19.40;99.90
10095;DHT22;5086;50.830;7.102;2023-05-19T11:45:53;19.50;99.90
10095;DHT22;5086;50.830;7.102;2023-05-19T11:48:21;19.50;98.10
10095;DHT22;5086;50.830;7.102;2023-05-19T11:50:53;19.60;98.90
10095;DHT22;5086;50.830;7.102;2023-05-19T11:53:22;20.00;99.50
10095;DHT22;5086;50.830;7.102;2023-05-19T11:56:02;20.10;98.00
10095;DHT22;5086;50.830;7.102;2023-05-19T11:58:29;20.20;98.30
10095;DHT22;5086;50.830;7.102;2023-05-19T12:01:03;20.30;99.90
10095;DHT22;5086;50.830;7.102;2023-05-19T12:03:36;20.30;99.50
10095;DHT22;5086;50.830;7.102;2023-05-19T12:06:08;20.30;99.90
10095;DHT22;5086;50.830;7.102;2023-05-19T12:08:35;20.20;98.10
10095;DHT22;5086;50.830;7.102;2023-05-19T12:11:05;19.90;98.50
10095;DHT22;5086;50.830;7.102;2023-05-19T12:13:33;19.90;99.90
10095;DHT22;5086;50.830;7.102;2023-05-19T12:16:30;19.90;99.30
10095;DHT22;5086;50.830;7.102;2023-05-19T12:18:50;20.00;98.70
10095;DHT22;5086;50.830;7.102;2023-05-19T12:21:18;20.10;98.80
10095;DHT22;5086;50.830;7.102;2023-05-19T12:23:50;20.20;99.90
10095;DHT22;5086;50.830;7.102;2023-05-19T12:26:21;20.30;99.90
10095;DHT22;5086;50.830;7.102;2023-05-19T12:28:48;20.40;99.90
10095;DHT22;5086;50.830;7.102;2023-05-19T12:31:17;20.50;99.40
10095;DHT22;5086;50.830;7.102;2023-05-19T12:33:47;20.10;96.40
10095;DHT22;5086;50.830;7.102;2023-05-19T12:36:16;20.20;99.10
10095;DHT22;5086;50.830;7.102;2023-05-19T12:38:43;20.30;99.90
10095;DHT22;5086;50.830;7.102;2023-05-19T12:41:12;20.30;99.90
10095;DHT22;5086;50.830;7.102;2023-05-19T12:43:40;20.50;99.90
10095;DHT22;5086;50.830;7.102;2023-05-19T12:46:11;20.50;99.90
10095;DHT22;5086;50.830;7.102;2023-05-19T12:48:42;20.30;97.70
10095;DHT22;5086;50.830;7.102;2023-05-19T12:51:09;20.30;97.10
10095;DHT22;5086;50.830;7.102;2023-05-19T12:53:36;20.30;99.90
10095;DHT22;5086;50.830;7.102;2023-05-19T12:56:12;20.20;98.70
10095;DHT22;5086;50.830;7.102;2023-05-19T12:58:41;20.10;99.50
10095;DHT22;5086;50.830;7.102;2023-05-19T13:01:14;19.90;99.90
10095;DHT22;5086;50.830;7.102;2023-05-19T13:03:42;19.80;98.40
10095;DHT22;5086;50.830;7.102;2023-05-19T13:06:09;20.00;97.00
10095;DHT22;5086;50.830;7.102;2023-05-19T13:08:37;20.10;98.40
10095;DHT22;5086;50.830;7.102;2023-05-19T13:11:04;20.20;96.60
10095;DHT22;5086;50.830;7.102;2023-05-19T13:13:32;20.30;97.80
10095;DHT22;5086;50.830;7.102;2023-05-19T13:16:00;20.50;98.90
10095;DHT22;5086;50.830;7.102;2023-05-19T13:18:33;20.60;99.90
10095;DHT22;5086;50.830;7.102;2023-05-19T13:21:04;20.70;99.90
10095;DHT22;5086;50.830;7.102;2023-05-19T13:23:40;20.90;99.90
10095;DHT22;5086;50.830;7.102;2023-05-19T13:26:07;21.00;99.20
10095;DHT22;5086;50.830;7.102;2023-05-19T13:28:37;21.00;99.20
10095;DHT22;5086;50.830;7.102;2023-05-19T13:31:07;20.90;98.90
10095;DHT22;5086;50.830;7.102;2023-05-19T13:33:34;20.90;96.70
10095;DHT22;5086;50.830;7.102;2023-05-19T13:36:04;21.00;98.10
10095;DHT22;5086;50.830;7.102;2023-05-19T13:38:31;20.70;95.60
10095;DHT22;5086;50.830;7.102;2023-05-19T13:40:58;20.50;96.40
10095;DHT22;5086;50.830;7.102;2023-05-19T13:43:25;20.60;98.70
10095;DHT22;5086;50.830;7.102;2023-05-19T13:45:52;20.50;94.20
10095;DHT22;5086;50.830;7.102;2023-05-19T13:48:20;20.50;94.80
10095;DHT22;5086;50.830;7.102;2023-05-19T13:50:51;20.70;96.40
10095;DHT22;5086;50.830;7.102;2023-05-19T13:53:20;21.00;95.90
10095;DHT22;5086;50.830;7.102;2023-05-19T13:55:47;21.20;95.60
10095;DHT22;5086;50.830;7.102;2023-05-19T13:58:27;21.20;94.70
10095;DHT22;5086;50.830;7.102;2023-05-19T14:01:15;21.30;95.80
10095;DHT22;5086;50.830;7.102;2023-05-19T14:03:44;21.30;94.00
10095;DHT22;5086;50.830;7.102;2023-05-19T14:06:11;21.40;93.30
10095;DHT22;5086;50.830;7.102;2023-05-19T14:08:37;21.10;93.20
10095;DHT22;5086;50.830;7.102;2023-05-19T14:11:04;21.30;94.50
10095;DHT22;5086;50.830;7.102;2023-05-19T14:13:31;21.50;97.10
10095;DHT22;5086;50.830;7.102;2023-05-19T14:15:59;21.40;96.00
10095;DHT22;5086;50.830;7.102;2023-05-19T14:18:28;21.30;94.80
10095;DHT22;5086;50.830;7.102;2023-05-19T14:20:58;21.00;93.70
10095;DHT22;5086;50.830;7.102;2023-05-19T14:23:25;20.90;96.70
10095;DHT22;5086;50.830;7.102;2023-05-19T14:25:53;20.60;98.20
10095;DHT22;5086;50.830;7.102;2023-05-19T14:28:20;20.60;97.80
10095;DHT22;5086;50.830;7.102;2023-05-19T14:30:47;20.60;94.40
10095;DHT22;5086;50.830;7.102;2023-05-19T14:33:14;20.50;93.90
10095;DHT22;5086;50.830;7.102;2023-05-19T14:35:41;20.50;93.40
10095;DHT22;5086;50.830;7.102;2023-05-19T14:38:10;20.60;93.40
10095;DHT22;5086;50.830;7.102;2023-05-19T14:40:37;20.90;94.10
10095;DHT22;5086;50.830;7.102;2023-05-19T14:43:05;21.10;93.50
10095;DHT22;5086;50.830;7.102;2023-05-19T14:45:32;21.40;94.20
10095;DHT22;5086;50.830;7.102;2023-05-19T14:47:59;21.70;95.20
10095;DHT22;5086;50.830;7.102;2023-05-19T14:50:33;21.50;93.80
10095;DHT22;5086;50.830;7.102;2023-05-19T14:53:00;21.60;92.90
10095;DHT22;5086;50.830;7.102;2023-05-19T14:55:28;21.60;95.60
10095;DHT22;5086;50.830;7.102;2023-05-19T14:57:55;21.50;95.60
10095;DHT22;5086;50.830;7.102;2023-05-19T15:00:22;21.20;94.80
10095;DHT22;5086;50.830;7.102;2023-05-19T15:02:50;21.00;95.80
10095;DHT22;5086;50.830;7.102;2023-05-19T15:05:17;20.70;98.60
10095;DHT22;5086;50.830;7.102;2023-05-19T15:07:44;20.60;97.30
10095;DHT22;5086;50.830;7.102;2023-05-19T15:10:11;20.40;99.50
10095;DHT22;5086;50.830;7.102;2023-05-19T15:12:39;20.40;96.80
10095;DHT22;5086;50.830;7.102;2023-05-19T15:15:07;20.40;97.90
10095;DHT22;5086;50.830;7.102;2023-05-19T15:17:34;20.60;94.50
10095;DHT22;5086;50.830;7.102;2023-05-19T15:20:03;20.70;96.70
10095;DHT22;5086;50.830;7.102;2023-05-19T15:22:30;20.90;99.10
10095;DHT22;5086;50.830;7.102;2023-05-19T15:24:57;21.00;97.70
10095;DHT22;5086;50.830;7.102;2023-05-19T15:27:23;21.00;94.00
10095;DHT22;5086;50.830;7.102;2023-05-19T15:29:52;21.00;96.00
10095;DHT22;5086;50.830;7.102;2023-05-19T15:32:19;20.80;96.90
10095;DHT22;5086;50.830;7.102;2023-05-19T15:34:46;20.90;96.70
10095;DHT22;5086;50.830;7.102;2023-05-19T15:37:13;21.00;96.80
10095;DHT22;5086;50.830;7.102;2023-05-19T15:39:45;20.90;97.00
10095;DHT22;5086;50.830;7.102;2023-05-19T15:42:12;20.80;96.80
10095;DHT22;5086;50.830;7.102;2023-05-19T15:44:39;20.60;96.70
10095;DHT22;5086;50.830;7.102;2023-05-19T15:47:08;20.80;95.00
10095;DHT22;5086;50.830;7.102;2023-05-19T15:49:35;21.00;95.40
10095;DHT22;5086;50.830;7.102;2023-05-19T15:52:02;21.20;95.50
10095;DHT22;5086;50.830;7.102;2023-05-19T15:54:36;21.40;93.30
10095;DHT22;5086;50.830;7.102;2023-05-19T15:57:03;21.40;93.70
10095;DHT22;5086;50.830;7.102;2023-05-19T15:59:30;21.50;91.80
10095;DHT22;5086;50.830;7.102;2023-05-19T16:01:57;21.50;93.90
10095;DHT22;5086;50.830;7.102;2023-05-19T16:04:25;21.60;92.00
10095;DHT22;5086;50.830;7.102;2023-05-19T16:06:52;21.50;93.60
10095;DHT22;5086;50.830;7.102;2023-05-19T16:09:19;21.50;95.60
10095;DHT22;5086;50.830;7.102;2023-05-19T16:11:46;21.30;95.60